createdAt,value
2019-01-09T00:01:28.216Z,5.90
2019-01-09T00:03:57.525Z,5.90
2019-01-09T00:06:26.819Z,5.90
2019-01-09T00:08:56.089Z,5.80
2019-01-09T00:11:25.364Z,5.70
2019-01-09T00:13:54.666Z,5.50
2019-01-09T00:16:23.922Z,5.40
2019-01-09T00:18:53.350Z,5.40
2019-01-09T00:21:22.632Z,5.40
2019-01-09T00:23:51.903Z,5.50
2019-01-09T00:26:21.195Z,5.50
2019-01-09T00:28:50.545Z,5.50
2019-01-09T00:31:20.165Z,5.50
2019-01-09T00:33:49.445Z,5.50
2019-01-09T00:36:18.721Z,5.50
2019-01-09T00:38:47.992Z,5.50
2019-01-09T00:41:17.284Z,5.50
2019-01-09T00:43:46.543Z,5.50
2019-01-09T00:46:15.845Z,5.40
2019-01-09T00:48:45.118Z,5.40
2019-01-09T00:51:14.479Z,5.40
2019-01-09T00:53:43.740Z,5.40
2019-01-09T00:56:13.163Z,5.40
2019-01-09T00:58:42.624Z,5.40
2019-01-09T01:01:12.114Z,5.40
2019-01-09T01:04:25.432Z,5.40
2019-01-09T01:07:56.845Z,5.40
2019-01-09T01:11:16.492Z,5.40
2019-01-09T01:14:26.371Z,5.40
2019-01-09T01:17:38.296Z,5.40
2019-01-09T01:20:58.474Z,5.30
2019-01-09T01:24:13.600Z,5.30
2019-01-09T01:26:48.192Z,5.30
2019-01-09T01:30:06.522Z,5.30
2019-01-09T01:33:10.497Z,5.30
2019-01-09T01:36:11.689Z,5.20
2019-01-09T01:39:23.477Z,5.30
2019-01-09T01:42:02.788Z,5.20
2019-01-09T01:44:57.232Z,5.20
2019-01-09T01:48:03.977Z,5.30
2019-01-09T01:51:06.760Z,5.20
2019-01-09T01:54:23.440Z,5.30
2019-01-09T01:57:05.440Z,5.30
2019-01-09T01:59:43.879Z,5.30
2019-01-09T02:03:02.973Z,5.30
2019-01-09T02:06:03.749Z,5.30
2019-01-09T02:08:59.165Z,5.30
2019-01-09T02:11:52.210Z,5.40
2019-01-09T02:15:17.622Z,5.40
2019-01-09T02:17:56.225Z,5.50
2019-01-09T02:20:53.810Z,5.50
2019-01-09T02:23:33.003Z,5.50
2019-01-09T02:26:29.950Z,5.50
2019-01-09T02:29:25.008Z,5.50
2019-01-09T02:32:33.502Z,5.50
2019-01-09T02:35:02.875Z,5.50
2019-01-09T02:37:32.142Z,5.40
2019-01-09T02:40:01.422Z,5.40
2019-01-09T02:42:30.781Z,5.50
2019-01-09T02:45:00.162Z,5.50
2019-01-09T02:47:29.632Z,5.50
2019-01-09T02:49:58.913Z,5.50
2019-01-09T02:52:28.176Z,5.50
2019-01-09T02:54:57.424Z,5.50
2019-01-09T02:57:26.714Z,5.40
2019-01-09T02:59:55.980Z,5.40
2019-01-09T03:02:25.265Z,5.40
2019-01-09T03:04:54.536Z,5.40
2019-01-09T03:07:23.817Z,5.40
2019-01-09T03:09:53.074Z,5.40
2019-01-09T03:12:22.335Z,5.40
2019-01-09T03:14:51.587Z,5.30
2019-01-09T03:17:20.872Z,5.20
2019-01-09T03:19:50.115Z,5.20
2019-01-09T03:22:19.391Z,5.10
2019-01-09T03:24:48.663Z,5.00
2019-01-09T03:27:17.973Z,5.00
2019-01-09T03:29:47.249Z,5.00
2019-01-09T03:32:16.537Z,5.00
2019-01-09T03:34:45.791Z,4.90
2019-01-09T03:37:15.081Z,4.90
2019-01-09T03:39:44.361Z,4.80
2019-01-09T03:42:13.612Z,4.80
2019-01-09T03:44:42.895Z,4.80
2019-01-09T03:47:12.236Z,4.80
2019-01-09T03:49:41.537Z,5.00
2019-01-09T03:52:10.799Z,5.00
2019-01-09T03:54:40.156Z,5.00
2019-01-09T03:57:09.431Z,5.00
2019-01-09T03:59:38.707Z,4.90
2019-01-09T04:02:07.957Z,4.90
2019-01-09T04:04:37.239Z,4.90
2019-01-09T04:07:06.483Z,4.80
2019-01-09T04:09:35.773Z,4.80
2019-01-09T04:12:05.052Z,4.70
2019-01-09T04:14:34.322Z,4.80
2019-01-09T04:17:03.595Z,4.80
2019-01-09T04:19:32.847Z,4.80
2019-01-09T04:22:02.135Z,4.70
2019-01-09T04:24:31.396Z,4.70
2019-01-09T04:27:00.674Z,4.60
2019-01-09T04:29:29.934Z,4.60
2019-01-09T04:31:59.236Z,4.50
2019-01-09T04:34:28.591Z,4.40
2019-01-09T04:36:57.851Z,4.40
2019-01-09T04:39:27.123Z,4.30
2019-01-09T04:41:56.397Z,4.30
2019-01-09T04:44:25.683Z,4.40
2019-01-09T04:46:54.940Z,4.30
2019-01-09T04:49:24.201Z,4.40
2019-01-09T04:51:53.462Z,4.50
2019-01-09T04:54:22.747Z,4.50
2019-01-09T04:56:51.996Z,4.60
2019-01-09T04:59:21.280Z,4.60
2019-01-09T05:01:50.555Z,4.60
2019-01-09T05:04:19.827Z,4.70
2019-01-09T05:06:49.120Z,4.60
2019-01-09T05:09:18.424Z,4.60
2019-01-09T05:11:47.708Z,4.60
2019-01-09T05:14:16.973Z,4.60
2019-01-09T05:16:46.260Z,4.50
2019-01-09T05:19:15.500Z,4.50
2019-01-09T05:21:44.793Z,4.50
2019-01-09T05:24:14.059Z,4.40
2019-01-09T05:26:43.357Z,4.30
2019-01-09T05:29:12.608Z,4.20
2019-01-09T05:31:41.907Z,4.20
2019-01-09T05:34:11.178Z,4.10
2019-01-09T05:36:40.471Z,4.10
2019-01-09T05:39:09.769Z,4.10
2019-01-09T05:41:39.052Z,4.20
2019-01-09T05:44:08.353Z,4.20
2019-01-09T05:46:37.733Z,4.30
2019-01-09T05:49:07.089Z,4.30
2019-01-09T05:51:36.366Z,4.40
2019-01-09T05:54:05.684Z,4.30
2019-01-09T05:56:34.946Z,4.40
2019-01-09T05:59:04.255Z,4.40
2019-01-09T06:01:33.541Z,4.40
2019-01-09T06:04:02.804Z,4.40
2019-01-09T06:06:32.092Z,4.40
2019-01-09T06:09:01.356Z,4.40
2019-01-09T06:11:30.646Z,4.30
2019-01-09T06:13:59.903Z,4.20
2019-01-09T06:16:29.204Z,4.20
2019-01-09T06:18:58.475Z,4.10
2019-01-09T06:21:27.765Z,4.20
2019-01-09T06:23:57.028Z,4.20
2019-01-09T06:26:26.301Z,4.30
2019-01-09T06:28:55.568Z,4.40
2019-01-09T06:31:24.868Z,4.40
2019-01-09T06:33:54.160Z,4.40
2019-01-09T06:36:23.467Z,4.30
2019-01-09T06:38:52.752Z,4.30
2019-01-09T06:41:22.037Z,4.20
2019-01-09T06:43:51.323Z,4.20
2019-01-09T06:46:20.604Z,4.30
2019-01-09T06:48:49.893Z,4.30
2019-01-09T06:51:19.271Z,4.30
2019-01-09T06:53:48.562Z,4.40
2019-01-09T06:56:17.861Z,4.40
2019-01-09T06:58:47.183Z,4.30
2019-01-09T07:01:16.466Z,4.40
2019-01-09T07:03:45.816Z,4.40
2019-01-09T07:06:15.108Z,4.40
2019-01-09T07:08:44.399Z,4.30
2019-01-09T07:11:13.733Z,4.20
2019-01-09T07:13:42.993Z,4.20
2019-01-09T07:16:12.284Z,4.10
2019-01-09T07:18:41.568Z,4.10
2019-01-09T07:21:10.944Z,4.10
2019-01-09T07:23:40.232Z,4.10
2019-01-09T07:26:09.501Z,4.10
2019-01-09T07:28:38.776Z,4.10
2019-01-09T07:31:08.083Z,4.20
2019-01-09T07:33:37.357Z,4.10
2019-01-09T07:36:06.636Z,4.10
2019-01-09T07:38:35.912Z,3.90
2019-01-09T07:41:05.178Z,3.90
2019-01-09T07:43:34.477Z,3.80
2019-01-09T07:46:03.761Z,3.70
2019-01-09T07:48:33.055Z,3.70
2019-01-09T07:51:02.350Z,3.60
2019-01-09T07:53:31.645Z,3.60
2019-01-09T07:56:00.916Z,3.70
2019-01-09T07:58:30.208Z,3.80
2019-01-09T08:00:59.780Z,3.90
2019-01-09T08:03:29.068Z,4.00
2019-01-09T08:05:58.327Z,4.10
2019-01-09T08:08:27.610Z,4.00
2019-01-09T08:10:56.906Z,4.10
2019-01-09T08:13:26.295Z,4.10
2019-01-09T08:15:55.569Z,4.20
2019-01-09T08:18:24.837Z,4.20
2019-01-09T08:20:54.132Z,4.40
2019-01-09T08:23:23.398Z,4.70
2019-01-09T08:25:52.684Z,4.80
2019-01-09T08:28:22.053Z,4.90
2019-01-09T08:30:51.318Z,5.10
2019-01-09T08:33:20.617Z,5.50
2019-01-09T08:35:49.896Z,5.90
2019-01-09T08:38:19.182Z,6.50
2019-01-09T08:40:48.664Z,7.00
2019-01-09T08:43:18.041Z,7.40
2019-01-09T08:45:47.319Z,7.70
2019-01-09T08:48:16.627Z,8.30
2019-01-09T08:50:45.929Z,8.60
2019-01-09T08:53:15.202Z,8.90
2019-01-09T08:55:44.571Z,9.10
2019-01-09T08:58:13.924Z,9.20
2019-01-09T09:00:43.232Z,8.40
2019-01-09T09:03:12.534Z,7.50
2019-01-09T09:05:41.888Z,6.70
2019-01-09T09:08:14.864Z,6.20
2019-01-09T09:10:44.241Z,5.90
2019-01-09T09:13:32.907Z,6.40
2019-01-09T09:16:02.199Z,7.00
2019-01-09T09:18:31.514Z,7.10
2019-01-09T09:21:00.806Z,7.80
2019-01-09T09:23:30.162Z,8.20
2019-01-09T09:25:59.429Z,8.20
2019-01-09T09:28:28.717Z,8.50
2019-01-09T09:30:58.018Z,8.90
2019-01-09T09:33:27.293Z,9.70
2019-01-09T09:35:56.552Z,9.90
2019-01-09T09:38:25.856Z,10.40
2019-01-09T09:40:55.160Z,10.30
2019-01-09T09:43:24.450Z,11.00
2019-01-09T09:45:53.751Z,11.30
2019-01-09T09:48:23.041Z,11.70
2019-01-09T09:50:52.318Z,11.40
2019-01-09T09:53:21.618Z,11.00
2019-01-09T09:55:50.940Z,10.30
2019-01-09T09:58:20.298Z,9.80
2019-01-09T10:00:49.590Z,9.30
2019-01-09T10:03:18.849Z,9.80
2019-01-09T10:05:48.129Z,10.00
2019-01-09T10:08:17.405Z,9.50
2019-01-09T10:10:46.693Z,9.00
2019-01-09T10:13:15.954Z,8.60
2019-01-09T10:15:45.244Z,8.70
2019-01-09T10:18:14.529Z,9.30
2019-01-09T10:20:43.799Z,9.90
2019-01-09T10:23:13.078Z,11.00
2019-01-09T10:25:42.353Z,11.80
2019-01-09T10:28:11.648Z,12.40
2019-01-09T10:30:40.908Z,11.90
2019-01-09T10:33:10.183Z,11.10
2019-01-09T10:35:39.557Z,10.20
2019-01-09T10:38:08.847Z,9.30
2019-01-09T10:40:38.220Z,8.50
2019-01-09T10:43:07.565Z,8.10
2019-01-09T10:45:36.886Z,7.70
2019-01-09T10:48:06.284Z,7.60
2019-01-09T10:50:35.577Z,7.50
2019-01-09T10:53:04.865Z,8.30
2019-01-09T10:55:34.210Z,9.90
2019-01-09T10:58:03.503Z,11.00
2019-01-09T11:00:33.084Z,12.00
2019-01-09T11:03:02.370Z,11.70
2019-01-09T11:05:31.660Z,10.50
2019-01-09T11:08:00.920Z,9.80
2019-01-09T11:10:30.216Z,9.20
2019-01-09T11:12:59.498Z,8.60
2019-01-09T11:15:28.798Z,8.30
2019-01-09T11:17:58.106Z,8.20
2019-01-09T11:20:27.369Z,8.50
2019-01-09T11:22:56.619Z,8.50
2019-01-09T11:25:28.016Z,8.20
2019-01-09T11:27:57.342Z,8.30
2019-01-09T11:30:26.630Z,9.30
2019-01-09T11:32:55.928Z,8.70
2019-01-09T11:35:26.092Z,8.60
2019-01-09T11:37:55.385Z,8.40
2019-01-09T11:40:24.684Z,8.40
2019-01-09T11:42:53.977Z,8.10
2019-01-09T11:45:23.263Z,7.90
2019-01-09T11:47:52.567Z,7.60
2019-01-09T11:50:21.844Z,7.40
2019-01-09T11:52:51.145Z,7.50
2019-01-09T11:55:20.460Z,7.70
2019-01-09T11:57:49.728Z,7.60
2019-01-09T12:00:21.713Z,7.90
2019-01-09T12:02:51.012Z,8.30
2019-01-09T12:05:20.310Z,8.10
2019-01-09T12:07:49.708Z,8.10
2019-01-09T12:10:29.516Z,9.10
2019-01-09T12:12:51.765Z,9.70
2019-01-09T12:15:21.157Z,10.30
2019-01-09T12:17:50.452Z,9.80
2019-01-09T12:20:20.126Z,9.30
2019-01-09T12:22:49.565Z,9.20
2019-01-09T12:25:18.879Z,8.80
2019-01-09T12:27:48.196Z,8.10
2019-01-09T12:30:24.393Z,8.20
2019-01-09T12:32:53.880Z,9.20
2019-01-09T12:35:23.147Z,9.50
2019-01-09T12:37:52.516Z,8.50
2019-01-09T12:40:21.929Z,8.60
2019-01-09T12:42:51.253Z,9.10
2019-01-09T12:45:20.560Z,8.90
2019-01-09T12:47:49.824Z,8.50
2019-01-09T12:50:21.698Z,8.50
2019-01-09T12:52:52.686Z,9.10
2019-01-09T12:55:22.144Z,9.40
2019-01-09T12:57:51.457Z,9.10
2019-01-09T13:00:31.253Z,8.40
2019-01-09T13:03:00.538Z,7.90
2019-01-09T13:05:29.835Z,7.60
2019-01-09T13:07:59.108Z,7.80
2019-01-09T13:10:28.393Z,8.90
2019-01-09T13:12:57.808Z,8.80
2019-01-09T13:15:27.105Z,8.50
2019-01-09T13:17:56.376Z,8.10
2019-01-09T13:20:25.692Z,7.60
2019-01-09T13:22:54.977Z,7.60
2019-01-09T13:25:24.228Z,7.50
2019-01-09T13:27:53.492Z,7.40
2019-01-09T13:30:23.897Z,7.30
2019-01-09T13:32:53.189Z,7.20
2019-01-09T13:35:22.488Z,7.00
2019-01-09T13:37:51.785Z,7.00
2019-01-09T13:40:21.373Z,6.90
2019-01-09T13:42:50.641Z,6.80
2019-01-09T13:45:21.848Z,6.70
2019-01-09T13:47:51.149Z,6.70
2019-01-09T13:50:21.456Z,6.70
2019-01-09T13:52:51.156Z,6.70
2019-01-09T13:55:20.678Z,6.70
2019-01-09T13:57:49.957Z,8.00
2019-01-09T14:00:21.349Z,8.60
2019-01-09T14:02:50.772Z,8.90
2019-01-09T14:05:20.196Z,9.60
2019-01-09T14:07:49.619Z,8.80
2019-01-09T14:10:24.299Z,8.10
2019-01-09T14:12:53.667Z,7.70
2019-01-09T14:15:22.978Z,7.30
2019-01-09T14:17:52.398Z,7.10
2019-01-09T14:20:21.674Z,6.90
2019-01-09T14:22:51.036Z,6.90
2019-01-09T14:25:20.327Z,6.80
2019-01-09T14:27:49.578Z,6.50
2019-01-09T14:30:27.182Z,6.50
2019-01-09T14:32:56.458Z,6.80
2019-01-09T14:35:25.726Z,6.90
2019-01-09T14:37:55.026Z,6.80
2019-01-09T14:40:24.396Z,6.70
2019-01-09T14:42:53.669Z,6.60
2019-01-09T14:45:22.952Z,6.60
2019-01-09T14:47:52.242Z,6.50
2019-01-09T14:50:23.488Z,6.60
2019-01-09T14:52:53.544Z,6.70
2019-01-09T14:55:22.845Z,6.70
2019-01-09T14:57:52.578Z,6.60
2019-01-09T15:00:23.971Z,6.60
2019-01-09T15:02:53.260Z,6.50
2019-01-09T15:05:22.658Z,6.40
2019-01-09T15:07:51.963Z,6.30
2019-01-09T15:10:31.382Z,6.40
2019-01-09T15:13:00.616Z,6.30
2019-01-09T15:15:29.941Z,6.30
2019-01-09T15:17:59.228Z,6.20
2019-01-09T15:20:28.525Z,6.10
2019-01-09T15:22:57.891Z,6.10
2019-01-09T15:25:27.205Z,6.00
2019-01-09T15:27:56.480Z,5.80
2019-01-09T15:30:27.839Z,5.90
2019-01-09T15:32:57.200Z,5.80
2019-01-09T15:35:26.473Z,5.90
2019-01-09T15:37:55.767Z,6.00
2019-01-09T15:40:27.367Z,5.90
2019-01-09T15:42:56.865Z,5.90
2019-01-09T15:45:26.272Z,5.80
2019-01-09T15:47:55.637Z,5.80
2019-01-09T15:50:25.639Z,5.70
2019-01-09T15:52:55.069Z,5.70
2019-01-09T15:55:24.516Z,5.70
2019-01-09T15:57:53.901Z,5.70
2019-01-09T16:00:34.880Z,5.70
2019-01-09T16:03:04.333Z,5.60
2019-01-09T16:05:33.625Z,5.60
2019-01-09T16:08:02.900Z,5.50
2019-01-09T16:10:32.201Z,5.40
2019-01-09T16:13:01.465Z,5.30
2019-01-09T16:15:30.788Z,5.40
2019-01-09T16:18:00.075Z,5.30
2019-01-09T16:20:29.355Z,5.30
2019-01-09T16:22:58.632Z,5.30
2019-01-09T16:25:27.911Z,5.30
2019-01-09T16:27:57.280Z,5.30
2019-01-09T16:30:39.583Z,5.30
2019-01-09T16:33:08.849Z,5.30
2019-01-09T16:35:38.194Z,5.20
2019-01-09T16:38:07.500Z,5.30
2019-01-09T16:40:36.900Z,5.20
2019-01-09T16:43:10.857Z,5.30
2019-01-09T16:45:40.745Z,5.20
2019-01-09T16:48:10.021Z,5.20
2019-01-09T16:50:39.553Z,5.20
2019-01-09T16:53:08.877Z,5.20
2019-01-09T16:55:38.427Z,5.20
2019-01-09T16:58:08.083Z,5.30
2019-01-09T17:00:37.825Z,5.30
2019-01-09T17:03:07.183Z,5.30
2019-01-09T17:05:37.040Z,5.20
2019-01-09T17:08:06.709Z,5.20
2019-01-09T17:10:36.009Z,5.10
2019-01-09T17:13:05.559Z,5.10
2019-01-09T17:15:34.916Z,5.10
2019-01-09T17:18:05.285Z,5.10
2019-01-09T17:20:34.665Z,5.20
2019-01-09T17:23:03.998Z,5.20
2019-01-09T17:25:33.355Z,5.10
2019-01-09T17:28:02.725Z,5.20
2019-01-09T17:30:32.080Z,5.30
2019-01-09T17:33:01.437Z,5.20
2019-01-09T17:35:30.737Z,5.20
2019-01-09T17:38:00.072Z,5.20
2019-01-09T17:40:29.337Z,5.20
2019-01-09T17:42:58.691Z,5.10
2019-01-09T17:45:27.966Z,5.10
2019-01-09T17:47:57.268Z,5.10
2019-01-09T17:50:32.309Z,5.00
2019-01-09T17:53:01.718Z,5.00
2019-01-09T17:55:31.073Z,4.90
2019-01-09T17:58:00.356Z,4.90
2019-01-09T18:00:35.311Z,5.00
2019-01-09T18:03:04.872Z,5.00
2019-01-09T18:05:34.149Z,5.00
2019-01-09T18:08:10.399Z,5.00
2019-01-09T18:10:34.492Z,4.90
2019-01-09T18:13:03.879Z,4.90
2019-01-09T18:15:33.275Z,4.80
2019-01-09T18:18:02.556Z,4.80
2019-01-09T18:20:32.273Z,4.70
2019-01-09T18:23:01.630Z,4.70
2019-01-09T18:25:31.697Z,4.70
2019-01-09T18:28:00.997Z,4.70
2019-01-09T18:30:33.547Z,4.60
2019-01-09T18:33:18.892Z,4.50
2019-01-09T18:36:28.889Z,4.50
2019-01-09T18:39:54.135Z,4.40
2019-01-09T18:42:53.702Z,4.30
2019-01-09T18:45:49.560Z,4.20
2019-01-09T18:49:15.065Z,4.30
2019-01-09T18:52:12.004Z,4.30
2019-01-09T18:54:41.592Z,4.20
2019-01-09T18:57:11.004Z,4.30
2019-01-09T18:59:40.336Z,4.30
2019-01-09T19:02:09.654Z,4.20
2019-01-09T19:04:40.184Z,4.10
2019-01-09T19:07:09.864Z,4.10
2019-01-09T19:09:39.221Z,4.20
2019-01-09T19:12:08.605Z,4.20
2019-01-09T19:14:37.871Z,4.20
2019-01-09T19:17:07.344Z,4.10
2019-01-09T19:19:36.762Z,4.20
2019-01-09T19:22:06.061Z,4.30
2019-01-09T19:24:35.358Z,4.40
2019-01-09T19:27:04.634Z,4.40
2019-01-09T19:29:33.929Z,4.40
2019-01-09T19:32:03.230Z,4.40
2019-01-09T19:34:32.711Z,4.50
2019-01-09T19:37:02.054Z,4.50
2019-01-09T19:39:31.325Z,4.40
2019-01-09T19:42:00.662Z,4.40
2019-01-09T19:44:29.984Z,4.40
2019-01-09T19:46:59.261Z,5.00
2019-01-09T19:49:28.557Z,5.10
2019-01-09T19:51:59.644Z,4.90
2019-01-09T19:54:29.075Z,4.70
2019-01-09T19:56:58.346Z,4.50
2019-01-09T19:59:27.856Z,4.40
2019-01-09T20:01:57.141Z,4.30
2019-01-09T20:04:26.635Z,4.20
2019-01-09T20:06:57.247Z,4.30
2019-01-09T20:09:26.717Z,4.10
2019-01-09T20:11:57.242Z,4.10
2019-01-09T20:14:26.716Z,4.00
2019-01-09T20:16:56.278Z,3.90
2019-01-09T20:19:25.628Z,3.90
2019-01-09T20:21:54.979Z,4.00
2019-01-09T20:24:24.312Z,4.00
2019-01-09T20:26:53.654Z,4.10
2019-01-09T20:29:22.959Z,4.00
2019-01-09T20:31:52.385Z,3.80
2019-01-09T20:34:21.673Z,3.80
2019-01-09T20:36:50.995Z,3.80
2019-01-09T20:39:20.366Z,3.80
2019-01-09T20:41:49.830Z,3.90
2019-01-09T20:44:19.253Z,3.80
2019-01-09T20:46:48.604Z,3.70
2019-01-09T20:49:17.928Z,3.70
2019-01-09T20:51:47.337Z,3.70
2019-01-09T20:54:16.738Z,3.60
2019-01-09T20:56:46.023Z,3.70
2019-01-09T20:59:15.366Z,3.70
2019-01-09T21:01:44.728Z,3.80
2019-01-09T21:04:14.075Z,3.80
2019-01-09T21:06:43.453Z,3.90
2019-01-09T21:09:12.852Z,3.90
2019-01-09T21:11:44.445Z,3.80
2019-01-09T21:14:13.283Z,3.80
2019-01-09T21:16:42.672Z,3.90
2019-01-09T21:19:12.247Z,3.90
2019-01-09T21:21:41.587Z,4.00
2019-01-09T21:24:10.952Z,3.90
2019-01-09T21:26:40.265Z,3.90
2019-01-09T21:29:09.531Z,3.90
2019-01-09T21:31:38.785Z,3.90
2019-01-09T21:34:08.145Z,3.90
2019-01-09T21:36:37.432Z,4.00
2019-01-09T21:39:09.287Z,4.10
2019-01-09T21:41:38.589Z,4.00
2019-01-09T21:44:15.824Z,4.10
2019-01-09T21:46:46.081Z,4.00
2019-01-09T21:49:09.893Z,4.00
2019-01-09T21:51:39.258Z,4.00
2019-01-09T21:54:08.556Z,3.90
2019-01-09T21:56:37.794Z,4.00
2019-01-09T21:59:07.186Z,3.90
2019-01-09T22:01:36.520Z,4.00
2019-01-09T22:04:05.828Z,3.90
2019-01-09T22:06:35.112Z,3.90
2019-01-09T22:09:08.566Z,3.90
2019-01-09T22:11:37.869Z,3.80
2019-01-09T22:14:07.165Z,3.80
2019-01-09T22:16:36.464Z,3.80
2019-01-09T22:19:11.860Z,3.80
2019-01-09T22:21:37.184Z,3.90
2019-01-09T22:24:06.477Z,3.90
2019-01-09T22:26:35.782Z,3.90
2019-01-09T22:29:05.108Z,4.00
2019-01-09T22:31:34.390Z,4.00
2019-01-09T22:34:03.798Z,4.10
2019-01-09T22:36:33.083Z,4.00
2019-01-09T22:39:02.454Z,4.10
2019-01-09T22:41:31.696Z,4.00
2019-01-09T22:44:01.070Z,4.00
2019-01-09T22:46:30.951Z,4.00
2019-01-09T22:49:00.525Z,3.90
2019-01-09T22:51:29.781Z,3.90
2019-01-09T22:53:59.038Z,3.90
2019-01-09T22:56:28.334Z,3.90
2019-01-09T22:58:57.602Z,4.00
2019-01-09T23:01:28.838Z,3.90
2019-01-09T23:03:59.337Z,4.00
2019-01-09T23:06:28.755Z,3.90
2019-01-09T23:08:58.001Z,3.90
2019-01-09T23:11:27.299Z,3.90
2019-01-09T23:13:56.549Z,3.90
2019-01-09T23:16:25.838Z,3.90
2019-01-09T23:18:55.089Z,3.80
2019-01-09T23:21:24.390Z,3.70
2019-01-09T23:23:53.681Z,3.70
2019-01-09T23:26:22.993Z,3.70
2019-01-09T23:28:52.269Z,3.50
2019-01-09T23:31:21.559Z,3.40
2019-01-09T23:33:50.833Z,3.40
2019-01-09T23:36:20.111Z,3.50
2019-01-09T23:38:49.462Z,3.50
2019-01-09T23:41:18.743Z,3.60
2019-01-09T23:43:48.036Z,3.70
2019-01-09T23:46:17.285Z,3.70
2019-01-09T23:48:46.627Z,3.70
2019-01-09T23:51:15.924Z,3.70
2019-01-09T23:53:45.173Z,3.60
2019-01-09T23:56:14.454Z,3.60
2019-01-09T23:58:43.761Z,3.60
